sensor_id;sensor_type;location;lat;lon;timestamp;temperature;humidity
16643;DHT22;8435;52.184;5.406;2024-02-23T00:02:16;7.70;99.90
16643;DHT22;8435;52.184;5.406;2024-02-23T00:04:47;7.70;99.90
16643;DHT22;8435;52.184;5.406;2024-02-23T00:07:14;7.70;99.90
16643;DHT22;8435;52.184;5.406;2024-02-23T00:09:41;7.80;99.90
16643;DHT22;8435;52.184;5.406;2024-02-23T00:12:08;7.80;99.90
16643;DHT22;8435;52.184;5.406;2024-02-23T00:14:35;7.80;99.90
16643;DHT22;8435;52.184;5.406;2024-02-23T00:17:02;7.90;99.90
16643;DHT22;8435;52.184;5.406;2024-02-23T00:19:30;7.90;99.90
16643;DHT22;8435;52.184;5.406;2024-02-23T00:21:58;7.90;99.90
16643;DHT22;8435;52.184;5.406;2024-02-23T00:24:25;8.00;99.90
16643;DHT22;8435;52.184;5.406;2024-02-23T00:26:52;8.00;99.90
16643;DHT22;8435;52.184;5.406;2024-02-23T00:29:19;8.00;99.90
16643;DHT22;8435;52.184;5.406;2024-02-23T00:31:47;8.10;99.90
16643;DHT22;8435;52.184;5.406;2024-02-23T00:37:09;8.20;99.90
16643;DHT22;8435;52.184;5.406;2024-02-23T00:39:36;8.20;99.90
16643;DHT22;8435;52.184;5.406;2024-02-23T00:42:03;8.20;99.90
16643;DHT22;8435;52.184;5.406;2024-02-23T00:44:30;8.30;99.90
16643;DHT22;8435;52.184;5.406;2024-02-23T00:46:56;8.30;99.90
16643;DHT22;8435;52.184;5.406;2024-02-23T00:49:26;8.30;99.90
16643;DHT22;8435;52.184;5.406;2024-02-23T00:51:58;8.40;99.90
16643;DHT22;8435;52.184;5.406;2024-02-23T00:54:26;8.40;99.90
16643;DHT22;8435;52.184;5.406;2024-02-23T00:56:53;8.40;99.90
16643;DHT22;8435;52.184;5.406;2024-02-23T00:59:20;8.40;99.90
16643;DHT22;8435;52.184;5.406;2024-02-23T01:01:47;8.40;99.90
16643;DHT22;8435;52.184;5.406;2024-02-23T01:04:14;8.40;99.90
16643;DHT22;8435;52.184;5.406;2024-02-23T01:06:41;8.50;99.90
16643;DHT22;8435;52.184;5.406;2024-02-23T01:09:07;8.50;99.90
16643;DHT22;8435;52.184;5.406;2024-02-23T01:11:36;8.50;99.90
16643;DHT22;8435;52.184;5.406;2024-02-23T01:14:03;8.50;99.90
16643;DHT22;8435;52.184;5.406;2024-02-23T01:16:31;8.60;99.90
16643;DHT22;8435;52.184;5.406;2024-02-23T01:18:58;8.60;99.90
16643;DHT22;8435;52.184;5.406;2024-02-23T01:21:25;8.60;99.90
16643;DHT22;8435;52.184;5.406;2024-02-23T01:23:52;8.60;99.90
16643;DHT22;8435;52.184;5.406;2024-02-23T01:26:18;8.60;99.90
16643;DHT22;8435;52.184;5.406;2024-02-23T01:28:46;8.60;99.90
16643;DHT22;8435;52.184;5.406;2024-02-23T01:31:22;8.60;99.90
16643;DHT22;8435;52.184;5.406;2024-02-23T01:33:51;8.60;99.90
16643;DHT22;8435;52.184;5.406;2024-02-23T01:36:18;8.60;99.90
16643;DHT22;8435;52.184;5.406;2024-02-23T01:38:45;8.50;99.90
16643;DHT22;8435;52.184;5.406;2024-02-23T01:41:12;8.50;99.90
16643;DHT22;8435;52.184;5.406;2024-02-23T01:43:39;8.40;99.90
16643;DHT22;8435;52.184;5.406;2024-02-23T01:46:07;8.40;99.90
16643;DHT22;8435;52.184;5.406;2024-02-23T01:48:34;8.40;99.90
16643;DHT22;8435;52.184;5.406;2024-02-23T01:51:02;8.30;99.90
16643;DHT22;8435;52.184;5.406;2024-02-23T01:53:29;8.30;99.90
16643;DHT22;8435;52.184;5.406;2024-02-23T01:55:57;8.20;99.90
16643;DHT22;8435;52.184;5.406;2024-02-23T01:58:25;8.20;99.90
16643;DHT22;8435;52.184;5.406;2024-02-23T02:00:51;8.20;99.90
16643;DHT22;8435;52.184;5.406;2024-02-23T02:03:19;8.10;99.90
16643;DHT22;8435;52.184;5.406;2024-02-23T02:05:46;8.20;99.90
16643;DHT22;8435;52.184;5.406;2024-02-23T02:08:15;8.20;99.90
16643;DHT22;8435;52.184;5.406;2024-02-23T02:10:42;8.20;99.90
16643;DHT22;8435;52.184;5.406;2024-02-23T02:13:11;8.20;99.90
16643;DHT22;8435;52.184;5.406;2024-02-23T02:15:37;8.20;99.90
16643;DHT22;8435;52.184;5.406;2024-02-23T02:18:05;8.30;99.90
16643;DHT22;8435;52.184;5.406;2024-02-23T02:20:33;8.20;99.90
16643;DHT22;8435;52.184;5.406;2024-02-23T02:23:02;8.30;99.90
16643;DHT22;8435;52.184;5.406;2024-02-23T02:25:29;8.30;99.90
16643;DHT22;8435;52.184;5.406;2024-02-23T02:27:56;8.30;99.90
16643;DHT22;8435;52.184;5.406;2024-02-23T02:30:22;8.30;99.90
16643;DHT22;8435;52.184;5.406;2024-02-23T02:32:49;8.30;99.90
16643;DHT22;8435;52.184;5.406;2024-02-23T02:35:16;8.30;99.90
16643;DHT22;8435;52.184;5.406;2024-02-23T02:37:44;8.30;99.90
16643;DHT22;8435;52.184;5.406;2024-02-23T02:40:11;8.40;99.90
16643;DHT22;8435;52.184;5.406;2024-02-23T02:42:38;8.30;99.90
16643;DHT22;8435;52.184;5.406;2024-02-23T02:45:05;8.40;99.90
16643;DHT22;8435;52.184;5.406;2024-02-23T02:47:32;8.30;99.90
16643;DHT22;8435;52.184;5.406;2024-02-23T02:49:59;8.30;99.90
16643;DHT22;8435;52.184;5.406;2024-02-23T02:52:26;8.30;99.90
16643;DHT22;8435;52.184;5.406;2024-02-23T02:54:55;8.30;99.90
16643;DHT22;8435;52.184;5.406;2024-02-23T02:57:22;8.30;99.90
16643;DHT22;8435;52.184;5.406;2024-02-23T02:59:48;8.30;99.90
16643;DHT22;8435;52.184;5.406;2024-02-23T03:02:16;8.30;99.90
16643;DHT22;8435;52.184;5.406;2024-02-23T03:04:47;8.30;99.90
16643;DHT22;8435;52.184;5.406;2024-02-23T03:07:13;8.20;99.90
16643;DHT22;8435;52.184;5.406;2024-02-23T03:09:40;8.20;99.90
16643;DHT22;8435;52.184;5.406;2024-02-23T03:12:09;8.20;99.90
16643;DHT22;8435;52.184;5.406;2024-02-23T03:14:36;8.20;99.90
16643;DHT22;8435;52.184;5.406;2024-02-23T03:17:04;8.20;99.90
16643;DHT22;8435;52.184;5.406;2024-02-23T03:19:31;8.20;99.90
16643;DHT22;8435;52.184;5.406;2024-02-23T03:21:58;8.10;99.90
16643;DHT22;8435;52.184;5.406;2024-02-23T03:24:25;8.10;99.90
16643;DHT22;8435;52.184;5.406;2024-02-23T03:26:52;8.10;99.90
16643;DHT22;8435;52.184;5.406;2024-02-23T03:29:20;8.10;99.90
16643;DHT22;8435;52.184;5.406;2024-02-23T03:31:47;8.10;99.90
16643;DHT22;8435;52.184;5.406;2024-02-23T03:34:14;8.00;99.90
16643;DHT22;8435;52.184;5.406;2024-02-23T03:36:41;8.00;99.90
16643;DHT22;8435;52.184;5.406;2024-02-23T03:39:07;8.00;99.90
16643;DHT22;8435;52.184;5.406;2024-02-23T03:41:34;8.00;99.90
16643;DHT22;8435;52.184;5.406;2024-02-23T03:44:01;8.00;99.90
16643;DHT22;8435;52.184;5.406;2024-02-23T03:46:29;8.00;99.90
16643;DHT22;8435;52.184;5.406;2024-02-23T03:48:56;8.00;99.90
16643;DHT22;8435;52.184;5.406;2024-02-23T03:51:23;7.90;99.90
16643;DHT22;8435;52.184;5.406;2024-02-23T03:53:50;7.90;99.90
16643;DHT22;8435;52.184;5.406;2024-02-23T03:56:17;7.90;99.90
16643;DHT22;8435;52.184;5.406;2024-02-23T03:58:43;7.90;99.90
16643;DHT22;8435;52.184;5.406;2024-02-23T04:01:10;7.80;99.90
16643;DHT22;8435;52.184;5.406;2024-02-23T04:03:38;7.80;99.90
16643;DHT22;8435;52.184;5.406;2024-02-23T04:06:06;7.80;99.90
16643;DHT22;8435;52.184;5.406;2024-02-23T04:08:33;7.70;99.90
16643;DHT22;8435;52.184;5.406;2024-02-23T04:10:59;7.70;99.90
16643;DHT22;8435;52.184;5.406;2024-02-23T04:13:26;7.70;99.90
16643;DHT22;8435;52.184;5.406;2024-02-23T04:15:53;7.60;99.90
16643;DHT22;8435;52.184;5.406;2024-02-23T04:18:20;7.60;99.90
16643;DHT22;8435;52.184;5.406;2024-02-23T04:20:48;7.60;99.90
16643;DHT22;8435;52.184;5.406;2024-02-23T04:23:14;7.60;99.90
16643;DHT22;8435;52.184;5.406;2024-02-23T04:25:41;7.50;99.90
16643;DHT22;8435;52.184;5.406;2024-02-23T04:28:08;7.50;99.90
16643;DHT22;8435;52.184;5.406;2024-02-23T04:30:35;7.50;99.90
16643;DHT22;8435;52.184;5.406;2024-02-23T04:33:02;7.50;99.90
16643;DHT22;8435;52.184;5.406;2024-02-23T04:35:28;7.50;99.90
16643;DHT22;8435;52.184;5.406;2024-02-23T04:37:56;7.40;99.90
16643;DHT22;8435;52.184;5.406;2024-02-23T04:40:23;7.40;99.90
16643;DHT22;8435;52.184;5.406;2024-02-23T04:42:50;7.40;99.90
16643;DHT22;8435;52.184;5.406;2024-02-23T04:45:17;7.40;99.90
16643;DHT22;8435;52.184;5.406;2024-02-23T04:47:43;7.40;99.90
16643;DHT22;8435;52.184;5.406;2024-02-23T04:50:12;7.40;99.90
16643;DHT22;8435;52.184;5.406;2024-02-23T04:52:39;7.40;99.90
16643;DHT22;8435;52.184;5.406;2024-02-23T04:55:07;7.30;99.90
16643;DHT22;8435;52.184;5.406;2024-02-23T04:57:36;7.30;99.90
16643;DHT22;8435;52.184;5.406;2024-02-23T05:00:04;7.30;99.90
16643;DHT22;8435;52.184;5.406;2024-02-23T05:02:33;7.30;99.90
16643;DHT22;8435;52.184;5.406;2024-02-23T05:05:01;7.30;99.90
16643;DHT22;8435;52.184;5.406;2024-02-23T05:07:30;7.30;99.90
16643;DHT22;8435;52.184;5.406;2024-02-23T05:09:56;7.30;99.90
16643;DHT22;8435;52.184;5.406;2024-02-23T05:12:24;7.30;99.90
16643;DHT22;8435;52.184;5.406;2024-02-23T05:14:51;7.30;99.90
16643;DHT22;8435;52.184;5.406;2024-02-23T05:17:18;7.30;99.90
16643;DHT22;8435;52.184;5.406;2024-02-23T05:19:45;7.40;99.90
16643;DHT22;8435;52.184;5.406;2024-02-23T05:22:13;7.40;99.90
16643;DHT22;8435;52.184;5.406;2024-02-23T05:24:39;7.40;99.90
16643;DHT22;8435;52.184;5.406;2024-02-23T05:27:06;7.50;99.90
16643;DHT22;8435;52.184;5.406;2024-02-23T05:29:34;7.50;99.90
16643;DHT22;8435;52.184;5.406;2024-02-23T05:32:01;7.50;99.90
16643;DHT22;8435;52.184;5.406;2024-02-23T05:34:28;7.50;99.90
16643;DHT22;8435;52.184;5.406;2024-02-23T05:36:55;7.60;99.90
16643;DHT22;8435;52.184;5.406;2024-02-23T05:39:22;7.60;99.90
16643;DHT22;8435;52.184;5.406;2024-02-23T05:41:49;7.60;99.90
16643;DHT22;8435;52.184;5.406;2024-02-23T05:44:16;7.70;99.90
16643;DHT22;8435;52.184;5.406;2024-02-23T05:46:44;7.70;99.90
16643;DHT22;8435;52.184;5.406;2024-02-23T05:49:12;7.70;99.90
16643;DHT22;8435;52.184;5.406;2024-02-23T05:51:38;7.70;99.90
16643;DHT22;8435;52.184;5.406;2024-02-23T05:54:05;7.80;99.90
16643;DHT22;8435;52.184;5.406;2024-02-23T05:56:32;7.80;99.90
16643;DHT22;8435;52.184;5.406;2024-02-23T05:58:59;7.80;99.90
16643;DHT22;8435;52.184;5.406;2024-02-23T06:01:25;7.80;99.90
16643;DHT22;8435;52.184;5.406;2024-02-23T06:03:54;7.80;99.90
16643;DHT22;8435;52.184;5.406;2024-02-23T06:06:21;7.80;99.90
16643;DHT22;8435;52.184;5.406;2024-02-23T06:08:48;7.80;99.90
16643;DHT22;8435;52.184;5.406;2024-02-23T06:11:16;7.80;99.90
16643;DHT22;8435;52.184;5.406;2024-02-23T06:13:43;7.80;99.90
16643;DHT22;8435;52.184;5.406;2024-02-23T06:16:10;7.80;99.90
16643;DHT22;8435;52.184;5.406;2024-02-23T06:18:38;7.80;99.90
16643;DHT22;8435;52.184;5.406;2024-02-23T06:21:12;7.90;99.90
16643;DHT22;8435;52.184;5.406;2024-02-23T06:23:40;7.90;99.90
16643;DHT22;8435;52.184;5.406;2024-02-23T06:26:07;7.90;99.90
16643;DHT22;8435;52.184;5.406;2024-02-23T06:28:34;7.90;99.90
16643;DHT22;8435;52.184;5.406;2024-02-23T06:31:02;7.90;99.90
16643;DHT22;8435;52.184;5.406;2024-02-23T06:33:30;7.90;99.90
16643;DHT22;8435;52.184;5.406;2024-02-23T06:35:57;7.90;99.90
16643;DHT22;8435;52.184;5.406;2024-02-23T06:38:25;8.00;99.90
16643;DHT22;8435;52.184;5.406;2024-02-23T06:40:52;8.00;99.90
16643;DHT22;8435;52.184;5.406;2024-02-23T06:43:20;8.00;99.90
16643;DHT22;8435;52.184;5.406;2024-02-23T06:45:47;8.00;99.90
16643;DHT22;8435;52.184;5.406;2024-02-23T06:48:14;8.00;99.90
16643;DHT22;8435;52.184;5.406;2024-02-23T06:50:41;8.00;99.90
16643;DHT22;8435;52.184;5.406;2024-02-23T06:53:07;8.00;99.90
16643;DHT22;8435;52.184;5.406;2024-02-23T06:55:35;8.10;99.90
16643;DHT22;8435;52.184;5.406;2024-02-23T06:58:02;8.10;99.90
16643;DHT22;8435;52.184;5.406;2024-02-23T07:00:30;8.10;99.90
16643;DHT22;8435;52.184;5.406;2024-02-23T07:02:57;8.10;99.90
16643;DHT22;8435;52.184;5.406;2024-02-23T07:05:24;8.20;99.90
16643;DHT22;8435;52.184;5.406;2024-02-23T07:07:51;8.10;99.90
16643;DHT22;8435;52.184;5.406;2024-02-23T07:10:18;8.20;99.90
16643;DHT22;8435;52.184;5.406;2024-02-23T07:12:47;8.20;99.90
16643;DHT22;8435;52.184;5.406;2024-02-23T07:15:14;8.20;99.90
16643;DHT22;8435;52.184;5.406;2024-02-23T07:17:41;8.30;99.90
16643;DHT22;8435;52.184;5.406;2024-02-23T07:20:08;8.20;99.90
16643;DHT22;8435;52.184;5.406;2024-02-23T07:22:35;8.30;99.90
16643;DHT22;8435;52.184;5.406;2024-02-23T07:25:03;8.30;99.90
16643;DHT22;8435;52.184;5.406;2024-02-23T07:27:30;8.30;99.90
16643;DHT22;8435;52.184;5.406;2024-02-23T07:29:58;8.30;99.90
16643;DHT22;8435;52.184;5.406;2024-02-23T07:32:25;8.40;99.90
16643;DHT22;8435;52.184;5.406;2024-02-23T07:34:52;8.40;99.90
16643;DHT22;8435;52.184;5.406;2024-02-23T07:37:19;8.40;99.90
16643;DHT22;8435;52.184;5.406;2024-02-23T07:39:45;8.50;99.90
16643;DHT22;8435;52.184;5.406;2024-02-23T07:42:12;8.50;99.90
16643;DHT22;8435;52.184;5.406;2024-02-23T07:44:43;8.50;99.90
16643;DHT22;8435;52.184;5.406;2024-02-23T07:47:12;8.60;99.90
16643;DHT22;8435;52.184;5.406;2024-02-23T07:49:39;8.60;99.90
16643;DHT22;8435;52.184;5.406;2024-02-23T07:52:07;8.60;99.90
16643;DHT22;8435;52.184;5.406;2024-02-23T07:54:34;8.70;99.90
16643;DHT22;8435;52.184;5.406;2024-02-23T07:57:00;8.70;99.90
16643;DHT22;8435;52.184;5.406;2024-02-23T07:59:30;8.80;99.90
16643;DHT22;8435;52.184;5.406;2024-02-23T08:01:56;8.80;99.90
16643;DHT22;8435;52.184;5.406;2024-02-23T08:04:25;8.80;99.90
16643;DHT22;8435;52.184;5.406;2024-02-23T08:06:51;8.80;99.90
16643;DHT22;8435;52.184;5.406;2024-02-23T08:09:18;8.90;99.90
16643;DHT22;8435;52.184;5.406;2024-02-23T08:11:47;8.90;99.90
16643;DHT22;8435;52.184;5.406;2024-02-23T08:14:14;8.90;99.90
16643;DHT22;8435;52.184;5.406;2024-02-23T08:16:41;8.90;99.90
16643;DHT22;8435;52.184;5.406;2024-02-23T08:19:08;8.90;99.90
16643;DHT22;8435;52.184;5.406;2024-02-23T08:21:36;8.90;99.90
16643;DHT22;8435;52.184;5.406;2024-02-23T08:24:03;8.90;99.90
16643;DHT22;8435;52.184;5.406;2024-02-23T08:26:29;9.00;99.90
16643;DHT22;8435;52.184;5.406;2024-02-23T08:28:56;9.00;99.90
16643;DHT22;8435;52.184;5.406;2024-02-23T08:31:22;9.00;99.90
16643;DHT22;8435;52.184;5.406;2024-02-23T08:33:50;9.00;99.90
16643;DHT22;8435;52.184;5.406;2024-02-23T08:36:16;9.10;99.90
16643;DHT22;8435;52.184;5.406;2024-02-23T08:38:44;9.10;99.90
16643;DHT22;8435;52.184;5.406;2024-02-23T08:41:11;9.10;99.90
16643;DHT22;8435;52.184;5.406;2024-02-23T08:43:38;9.10;99.90
16643;DHT22;8435;52.184;5.406;2024-02-23T08:46:05;9.10;99.90
16643;DHT22;8435;52.184;5.406;2024-02-23T08:48:32;9.10;99.90
16643;DHT22;8435;52.184;5.406;2024-02-23T08:50:59;9.10;99.90
16643;DHT22;8435;52.184;5.406;2024-02-23T08:53:26;9.10;99.90
16643;DHT22;8435;52.184;5.406;2024-02-23T08:55:54;9.10;99.90
16643;DHT22;8435;52.184;5.406;2024-02-23T08:58:20;9.10;99.90
16643;DHT22;8435;52.184;5.406;2024-02-23T09:00:47;9.10;99.90
16643;DHT22;8435;52.184;5.406;2024-02-23T09:03:14;9.10;99.90
16643;DHT22;8435;52.184;5.406;2024-02-23T09:05:41;9.20;99.90
16643;DHT22;8435;52.184;5.406;2024-02-23T09:08:08;9.10;99.90
16643;DHT22;8435;52.184;5.406;2024-02-23T09:10:35;9.10;99.90
16643;DHT22;8435;52.184;5.406;2024-02-23T09:13:03;9.10;99.90
16643;DHT22;8435;52.184;5.406;2024-02-23T09:15:30;9.10;99.90
16643;DHT22;8435;52.184;5.406;2024-02-23T09:17:57;9.10;99.90
16643;DHT22;8435;52.184;5.406;2024-02-23T09:20:24;9.00;99.90
16643;DHT22;8435;52.184;5.406;2024-02-23T09:22:51;9.00;99.90
16643;DHT22;8435;52.184;5.406;2024-02-23T09:25:18;9.10;99.90
16643;DHT22;8435;52.184;5.406;2024-02-23T09:27:45;9.10;99.90
16643;DHT22;8435;52.184;5.406;2024-02-23T09:30:14;9.10;99.90
16643;DHT22;8435;52.184;5.406;2024-02-23T09:32:44;9.10;99.90
16643;DHT22;8435;52.184;5.406;2024-02-23T09:35:10;9.10;99.90
16643;DHT22;8435;52.184;5.406;2024-02-23T09:37:37;9.10;99.90
16643;DHT22;8435;52.184;5.406;2024-02-23T09:40:08;9.10;99.90
16643;DHT22;8435;52.184;5.406;2024-02-23T09:42:38;9.10;99.90
16643;DHT22;8435;52.184;5.406;2024-02-23T09:45:07;9.20;99.90
16643;DHT22;8435;52.184;5.406;2024-02-23T09:47:36;9.20;99.90
16643;DHT22;8435;52.184;5.406;2024-02-23T09:50:04;9.20;99.90
16643;DHT22;8435;52.184;5.406;2024-02-23T09:52:32;9.20;99.90
16643;DHT22;8435;52.184;5.406;2024-02-23T09:54:59;9.20;99.90
16643;DHT22;8435;52.184;5.406;2024-02-23T09:57:27;9.20;99.90
16643;DHT22;8435;52.184;5.406;2024-02-23T09:59:54;9.20;99.90
16643;DHT22;8435;52.184;5.406;2024-02-23T10:02:25;9.30;99.90
16643;DHT22;8435;52.184;5.406;2024-02-23T10:04:54;9.20;99.90
16643;DHT22;8435;52.184;5.406;2024-02-23T10:07:23;9.20;99.90
16643;DHT22;8435;52.184;5.406;2024-02-23T10:09:50;9.20;99.90
16643;DHT22;8435;52.184;5.406;2024-02-23T10:12:17;9.30;99.90
16643;DHT22;8435;52.184;5.406;2024-02-23T10:14:44;9.30;99.90
16643;DHT22;8435;52.184;5.406;2024-02-23T10:17:10;9.50;99.90
16643;DHT22;8435;52.184;5.406;2024-02-23T10:19:37;9.50;99.90
16643;DHT22;8435;52.184;5.406;2024-02-23T10:22:06;9.50;99.90
16643;DHT22;8435;52.184;5.406;2024-02-23T10:24:33;9.70;99.90
16643;DHT22;8435;52.184;5.406;2024-02-23T10:27:00;9.80;99.90
16643;DHT22;8435;52.184;5.406;2024-02-23T10:29:28;9.90;99.90
16643;DHT22;8435;52.184;5.406;2024-02-23T10:31:57;9.90;99.90
16643;DHT22;8435;52.184;5.406;2024-02-23T10:34:27;10.00;99.90
16643;DHT22;8435;52.184;5.406;2024-02-23T10:36:59;10.00;99.90
16643;DHT22;8435;52.184;5.406;2024-02-23T10:39:29;10.00;99.90
16643;DHT22;8435;52.184;5.406;2024-02-23T10:41:57;10.10;99.90
16643;DHT22;8435;52.184;5.406;2024-02-23T10:44:28;10.20;99.90
16643;DHT22;8435;52.184;5.406;2024-02-23T10:46:55;10.20;99.90
16643;DHT22;8435;52.184;5.406;2024-02-23T10:49:23;10.20;99.90
16643;DHT22;8435;52.184;5.406;2024-02-23T10:51:51;10.20;99.90
16643;DHT22;8435;52.184;5.406;2024-02-23T10:54:19;10.20;99.90
16643;DHT22;8435;52.184;5.406;2024-02-23T10:56:50;10.20;99.90
16643;DHT22;8435;52.184;5.406;2024-02-23T10:59:17;10.20;99.90
16643;DHT22;8435;52.184;5.406;2024-02-23T11:01:49;10.20;99.90
16643;DHT22;8435;52.184;5.406;2024-02-23T11:04:16;10.30;99.90
16643;DHT22;8435;52.184;5.406;2024-02-23T11:06:49;10.30;99.90
16643;DHT22;8435;52.184;5.406;2024-02-23T11:09:24;10.30;99.90
16643;DHT22;8435;52.184;5.406;2024-02-23T11:11:53;10.40;99.90
16643;DHT22;8435;52.184;5.406;2024-02-23T11:14:31;10.40;99.90
16643;DHT22;8435;52.184;5.406;2024-02-23T11:16:59;10.40;99.90
16643;DHT22;8435;52.184;5.406;2024-02-23T11:19:32;10.50;99.90
16643;DHT22;8435;52.184;5.406;2024-02-23T11:22:00;10.60;99.90
16643;DHT22;8435;52.184;5.406;2024-02-23T11:24:28;10.60;99.90
16643;DHT22;8435;52.184;5.406;2024-02-23T11:26:57;10.60;99.90
16643;DHT22;8435;52.184;5.406;2024-02-23T11:29:27;10.70;99.90
16643;DHT22;8435;52.184;5.406;2024-02-23T11:31:55;10.70;99.90
16643;DHT22;8435;52.184;5.406;2024-02-23T11:34:26;10.70;99.90
16643;DHT22;8435;52.184;5.406;2024-02-23T11:36:53;10.80;99.90
16643;DHT22;8435;52.184;5.406;2024-02-23T11:39:22;10.80;99.90
16643;DHT22;8435;52.184;5.406;2024-02-23T11:41:49;10.90;99.90
16643;DHT22;8435;52.184;5.406;2024-02-23T11:44:17;10.90;99.90
16643;DHT22;8435;52.184;5.406;2024-02-23T11:46:44;10.90;99.90
16643;DHT22;8435;52.184;5.406;2024-02-23T11:49:12;11.00;99.90
16643;DHT22;8435;52.184;5.406;2024-02-23T11:51:39;11.10;99.90
16643;DHT22;8435;52.184;5.406;2024-02-23T11:54:15;11.10;99.90
16643;DHT22;8435;52.184;5.406;2024-02-23T11:56:42;11.20;99.90
16643;DHT22;8435;52.184;5.406;2024-02-23T11:59:08;11.30;99.90
16643;DHT22;8435;52.184;5.406;2024-02-23T12:01:37;11.30;99.90
16643;DHT22;8435;52.184;5.406;2024-02-23T12:04:04;11.40;99.90
16643;DHT22;8435;52.184;5.406;2024-02-23T12:06:31;11.40;99.90
16643;DHT22;8435;52.184;5.406;2024-02-23T12:08:58;11.50;99.90
16643;DHT22;8435;52.184;5.406;2024-02-23T12:11:26;11.50;99.90
16643;DHT22;8435;52.184;5.406;2024-02-23T12:13:53;11.50;99.90
16643;DHT22;8435;52.184;5.406;2024-02-23T12:16:22;11.60;99.90
16643;DHT22;8435;52.184;5.406;2024-02-23T12:18:54;11.50;99.90
16643;DHT22;8435;52.184;5.406;2024-02-23T12:21:23;11.50;99.90
16643;DHT22;8435;52.184;5.406;2024-02-23T12:23:50;11.50;99.90
16643;DHT22;8435;52.184;5.406;2024-02-23T12:26:18;11.50;99.90
16643;DHT22;8435;52.184;5.406;2024-02-23T12:28:45;11.40;99.90
16643;DHT22;8435;52.184;5.406;2024-02-23T12:31:12;11.40;99.90
16643;DHT22;8435;52.184;5.406;2024-02-23T12:33:40;11.40;99.90
16643;DHT22;8435;52.184;5.406;2024-02-23T12:36:10;11.40;99.90
16643;DHT22;8435;52.184;5.406;2024-02-23T12:38:37;11.50;99.90
16643;DHT22;8435;52.184;5.406;2024-02-23T12:41:04;11.50;99.90
16643;DHT22;8435;52.184;5.406;2024-02-23T12:43:31;11.60;99.90
16643;DHT22;8435;52.184;5.406;2024-02-23T12:45:58;11.60;99.90
16643;DHT22;8435;52.184;5.406;2024-02-23T12:48:26;11.60;99.90
16643;DHT22;8435;52.184;5.406;2024-02-23T12:50:53;11.60;99.90
16643;DHT22;8435;52.184;5.406;2024-02-23T12:53:43;11.60;99.90
16643;DHT22;8435;52.184;5.406;2024-02-23T12:56:11;11.60;99.90
16643;DHT22;8435;52.184;5.406;2024-02-23T12:58:39;11.60;99.90
16643;DHT22;8435;52.184;5.406;2024-02-23T13:01:07;11.60;99.90
16643;DHT22;8435;52.184;5.406;2024-02-23T13:03:34;11.60;99.90
16643;DHT22;8435;52.184;5.406;2024-02-23T13:06:02;11.60;99.90
16643;DHT22;8435;52.184;5.406;2024-02-23T13:08:29;11.70;99.90
16643;DHT22;8435;52.184;5.406;2024-02-23T13:10:57;11.60;99.90
16643;DHT22;8435;52.184;5.406;2024-02-23T13:13:24;11.70;99.90
16643;DHT22;8435;52.184;5.406;2024-02-23T13:15:52;11.70;99.90
16643;DHT22;8435;52.184;5.406;2024-02-23T13:18:19;11.70;99.90
16643;DHT22;8435;52.184;5.406;2024-02-23T13:20:46;11.70;99.90
16643;DHT22;8435;52.184;5.406;2024-02-23T13:23:13;11.80;99.90
16643;DHT22;8435;52.184;5.406;2024-02-23T13:25:41;11.80;99.90
16643;DHT22;8435;52.184;5.406;2024-02-23T13:28:10;11.80;99.90
16643;DHT22;8435;52.184;5.406;2024-02-23T13:30:37;11.80;99.90
16643;DHT22;8435;52.184;5.406;2024-02-23T13:33:04;11.80;99.90
16643;DHT22;8435;52.184;5.406;2024-02-23T13:35:31;11.80;99.90
16643;DHT22;8435;52.184;5.406;2024-02-23T13:37:59;11.80;99.90
16643;DHT22;8435;52.184;5.406;2024-02-23T13:40:28;11.80;99.90
16643;DHT22;8435;52.184;5.406;2024-02-23T13:42:56;11.80;99.90
16643;DHT22;8435;52.184;5.406;2024-02-23T13:45:24;11.80;99.90
16643;DHT22;8435;52.184;5.406;2024-02-23T13:47:58;11.90;99.90
16643;DHT22;8435;52.184;5.406;2024-02-23T13:50:25;11.90;99.90
16643;DHT22;8435;52.184;5.406;2024-02-23T13:52:52;11.90;99.90
16643;DHT22;8435;52.184;5.406;2024-02-23T13:55:19;11.80;99.90
16643;DHT22;8435;52.184;5.406;2024-02-23T13:57:46;11.80;99.90
16643;DHT22;8435;52.184;5.406;2024-02-23T14:00:15;11.80;99.90
16643;DHT22;8435;52.184;5.406;2024-02-23T14:02:43;11.90;99.90
16643;DHT22;8435;52.184;5.406;2024-02-23T14:05:10;11.90;99.90
16643;DHT22;8435;52.184;5.406;2024-02-23T14:07:37;11.80;99.90
16643;DHT22;8435;52.184;5.406;2024-02-23T14:10:04;11.80;99.90
16643;DHT22;8435;52.184;5.406;2024-02-23T14:12:31;11.80;99.90
16643;DHT22;8435;52.184;5.406;2024-02-23T14:14:58;11.80;99.90
16643;DHT22;8435;52.184;5.406;2024-02-23T14:17:25;11.90;99.90
16643;DHT22;8435;52.184;5.406;2024-02-23T14:19:53;11.90;99.90
16643;DHT22;8435;52.184;5.406;2024-02-23T14:22:20;11.90;99.90
16643;DHT22;8435;52.184;5.406;2024-02-23T14:24:47;11.90;99.90
16643;DHT22;8435;52.184;5.406;2024-02-23T14:27:14;11.90;99.90
16643;DHT22;8435;52.184;5.406;2024-02-23T14:29:40;11.90;99.90
16643;DHT22;8435;52.184;5.406;2024-02-23T14:32:07;11.90;99.90
16643;DHT22;8435;52.184;5.406;2024-02-23T14:34:34;11.90;99.90
16643;DHT22;8435;52.184;5.406;2024-02-23T14:37:03;11.90;99.90
16643;DHT22;8435;52.184;5.406;2024-02-23T14:39:29;11.90;99.90
16643;DHT22;8435;52.184;5.406;2024-02-23T14:41:56;12.00;99.90
16643;DHT22;8435;52.184;5.406;2024-02-23T14:44:23;12.00;99.90
16643;DHT22;8435;52.184;5.406;2024-02-23T14:46:50;12.00;99.90
16643;DHT22;8435;52.184;5.406;2024-02-23T14:49:16;12.10;99.90
16643;DHT22;8435;52.184;5.406;2024-02-23T14:51:43;12.10;99.90
16643;DHT22;8435;52.184;5.406;2024-02-23T14:54:14;12.20;99.90
16643;DHT22;8435;52.184;5.406;2024-02-23T14:56:41;12.30;99.90
16643;DHT22;8435;52.184;5.406;2024-02-23T14:59:08;12.30;99.90
16643;DHT22;8435;52.184;5.406;2024-02-23T15:01:36;12.30;99.90
16643;DHT22;8435;52.184;5.406;2024-02-23T15:04:04;12.30;99.90
16643;DHT22;8435;52.184;5.406;2024-02-23T15:06:30;12.40;99.90
16643;DHT22;8435;52.184;5.406;2024-02-23T15:08:57;12.30;99.90
16643;DHT22;8435;52.184;5.406;2024-02-23T15:11:25;12.30;99.90
16643;DHT22;8435;52.184;5.406;2024-02-23T15:13:52;12.30;99.90
16643;DHT22;8435;52.184;5.406;2024-02-23T15:16:23;12.30;99.90
16643;DHT22;8435;52.184;5.406;2024-02-23T15:18:50;12.20;99.90
16643;DHT22;8435;52.184;5.406;2024-02-23T15:21:17;12.20;99.90
16643;DHT22;8435;52.184;5.406;2024-02-23T15:23:44;12.10;99.90
16643;DHT22;8435;52.184;5.406;2024-02-23T15:26:11;12.10;99.90
16643;DHT22;8435;52.184;5.406;2024-02-23T15:28:39;12.10;99.90
16643;DHT22;8435;52.184;5.406;2024-02-23T15:31:06;12.00;99.90
16643;DHT22;8435;52.184;5.406;2024-02-23T15:33:34;12.00;99.90
16643;DHT22;8435;52.184;5.406;2024-02-23T15:36:01;12.00;99.90
16643;DHT22;8435;52.184;5.406;2024-02-23T15:38:30;11.90;99.90
16643;DHT22;8435;52.184;5.406;2024-02-23T15:40:56;11.90;99.90
16643;DHT22;8435;52.184;5.406;2024-02-23T15:43:23;11.90;99.90
16643;DHT22;8435;52.184;5.406;2024-02-23T15:45:51;11.70;99.90
16643;DHT22;8435;52.184;5.406;2024-02-23T15:48:18;11.80;99.90
16643;DHT22;8435;52.184;5.406;2024-02-23T15:50:46;11.80;99.90
16643;DHT22;8435;52.184;5.406;2024-02-23T15:53:12;11.70;99.90
16643;DHT22;8435;52.184;5.406;2024-02-23T15:55:39;11.70;99.90
16643;DHT22;8435;52.184;5.406;2024-02-23T15:58:06;11.70;99.90
16643;DHT22;8435;52.184;5.406;2024-02-23T16:00:34;11.70;99.90
16643;DHT22;8435;52.184;5.406;2024-02-23T16:03:02;11.60;99.90